createdAt,value
2018-05-15T00:00:04.854Z,91.92
2018-05-15T00:01:04.734Z,91.90
2018-05-15T00:02:04.810Z,91.86
2018-05-15T00:03:04.816Z,91.65
2018-05-15T00:04:04.804Z,91.47
2018-05-15T00:05:04.863Z,91.90
2018-05-15T00:06:04.873Z,92.30
2018-05-15T00:07:04.842Z,92.51
2018-05-15T00:08:04.878Z,92.54
2018-05-15T00:09:04.779Z,92.51
2018-05-15T00:10:04.842Z,92.43
2018-05-15T00:11:04.778Z,92.32
2018-05-15T00:12:04.847Z,92.46
2018-05-15T00:13:04.790Z,92.27
2018-05-15T00:14:04.846Z,92.22
2018-05-15T00:15:04.848Z,92.30
2018-05-15T00:16:04.854Z,92.35
2018-05-15T00:17:04.779Z,92.51
2018-05-15T00:18:04.787Z,92.59
2018-05-15T00:19:04.820Z,92.57
2018-05-15T00:20:04.767Z,92.62
2018-05-15T00:21:04.884Z,92.62
2018-05-15T00:22:04.898Z,92.62
2018-05-15T00:23:04.816Z,92.49
2018-05-15T00:24:04.873Z,92.43
2018-05-15T00:25:04.851Z,92.40
2018-05-15T00:26:04.758Z,92.68
2018-05-15T00:27:04.813Z,92.84
2018-05-15T00:28:04.822Z,93.32
2018-05-15T00:29:04.799Z,93.54
2018-05-15T00:30:04.854Z,93.75
2018-05-15T00:31:04.854Z,94.29
2018-05-15T00:32:04.860Z,94.69
2018-05-15T00:33:04.884Z,94.77
2018-05-15T00:34:04.758Z,94.91
2018-05-15T00:35:04.831Z,95.04
2018-05-15T00:36:04.838Z,94.91
2018-05-15T00:37:04.813Z,94.83
2018-05-15T00:38:04.779Z,94.93
2018-05-15T00:39:04.826Z,95.37
2018-05-15T00:40:04.835Z,95.58
2018-05-15T00:41:04.765Z,95.66
2018-05-15T00:42:04.791Z,95.72
2018-05-15T00:43:04.893Z,95.75
2018-05-15T00:44:04.903Z,95.75
2018-05-15T00:45:04.841Z,95.85
2018-05-15T00:46:04.864Z,95.77
2018-05-15T00:47:04.829Z,95.75
2018-05-15T00:48:04.862Z,95.75
2018-05-15T00:49:04.870Z,95.83
2018-05-15T00:50:04.755Z,96.04
2018-05-15T00:51:04.869Z,95.98
2018-05-15T00:52:04.804Z,95.96
2018-05-15T00:53:04.894Z,95.85
2018-05-15T00:54:04.835Z,95.80
2018-05-15T00:55:04.880Z,95.75
2018-05-15T00:56:04.888Z,95.66
2018-05-15T00:57:04.881Z,95.50
2018-05-15T00:58:04.876Z,95.23
2018-05-15T00:59:04.895Z,95.01
2018-05-15T01:00:04.898Z,94.86
2018-05-15T01:01:04.903Z,94.69
2018-05-15T01:02:04.771Z,94.45
2018-05-15T01:03:04.913Z,94.40
2018-05-15T01:04:04.898Z,94.34
2018-05-15T01:05:04.904Z,94.37
2018-05-15T01:06:04.957Z,94.50
2018-05-15T01:07:04.912Z,94.77
2018-05-15T01:08:04.876Z,94.83
2018-05-15T01:09:04.841Z,95.15
2018-05-15T01:10:04.800Z,95.15
2018-05-15T01:11:04.803Z,95.20
2018-05-15T01:12:04.879Z,95.26
2018-05-15T01:13:04.818Z,95.64
2018-05-15T01:14:04.862Z,95.96
2018-05-15T01:15:04.899Z,96.42
2018-05-15T01:16:04.880Z,96.58
2018-05-15T01:17:04.914Z,96.91
2018-05-15T01:18:04.854Z,96.96
2018-05-15T01:19:04.887Z,96.99
2018-05-15T01:20:04.824Z,97.18
2018-05-15T01:21:04.826Z,97.42
2018-05-15T01:22:04.889Z,97.77
2018-05-15T01:23:04.820Z,97.96
2018-05-15T01:24:04.889Z,98.15
2018-05-15T01:25:04.829Z,98.26
2018-05-15T01:26:04.863Z,98.37
2018-05-15T01:27:04.827Z,98.61
2018-05-15T01:28:04.912Z,98.66
2018-05-15T01:29:04.884Z,98.69
2018-05-15T01:30:04.797Z,98.80
2018-05-15T01:31:04.764Z,98.96
2018-05-15T01:32:04.887Z,99.15
2018-05-15T01:33:04.880Z,99.32
2018-05-15T01:34:04.816Z,99.21
2018-05-15T01:35:04.844Z,99.26
2018-05-15T01:36:04.804Z,99.34
2018-05-15T01:37:04.844Z,99.26
2018-05-15T01:38:04.891Z,99.29
2018-05-15T01:39:04.888Z,99.18
2018-05-15T01:40:04.861Z,99.10
2018-05-15T01:41:04.865Z,99.07
2018-05-15T01:42:04.802Z,98.91
2018-05-15T01:43:04.838Z,98.94
2018-05-15T01:44:04.767Z,99.07
2018-05-15T01:45:04.891Z,99.23
2018-05-15T01:46:04.762Z,99.26
2018-05-15T01:47:04.843Z,99.32
2018-05-15T01:48:04.891Z,99.32
2018-05-15T01:49:04.901Z,99.37
2018-05-15T01:50:04.822Z,99.37
2018-05-15T01:51:04.904Z,99.34
2018-05-15T01:52:04.902Z,99.21
2018-05-15T01:53:04.828Z,99.15
2018-05-15T01:54:04.827Z,99.32
2018-05-15T01:55:04.827Z,99.75
2018-05-15T01:56:04.900Z,99.83
2018-05-15T01:57:04.848Z,99.89
2018-05-15T01:58:04.782Z,99.94
2018-05-15T01:59:04.903Z,99.81
2018-05-15T02:00:04.841Z,99.72
2018-05-15T02:01:04.775Z,99.70
2018-05-15T02:02:04.851Z,99.51
2018-05-15T02:03:04.901Z,99.53
2018-05-15T02:04:04.780Z,99.51
2018-05-15T02:05:04.846Z,99.51
2018-05-15T02:06:04.845Z,99.48
2018-05-15T02:07:04.902Z,99.37
2018-05-15T02:08:04.852Z,99.48
2018-05-15T02:09:04.916Z,99.45
2018-05-15T02:10:04.918Z,99.37
2018-05-15T02:11:04.928Z,99.32
2018-05-15T02:12:04.938Z,99.26
2018-05-15T02:13:04.923Z,99.37
2018-05-15T02:14:04.819Z,99.51
2018-05-15T02:15:04.953Z,99.64
2018-05-15T02:16:04.982Z,99.62
2018-05-15T02:17:04.912Z,99.72
2018-05-15T02:18:04.921Z,99.67
2018-05-15T02:19:04.890Z,99.64
2018-05-15T02:20:04.965Z,99.64
2018-05-15T02:21:04.953Z,99.59
2018-05-15T02:22:05.003Z,99.59
2018-05-15T02:23:04.850Z,99.67
2018-05-15T02:24:04.927Z,99.72
2018-05-15T02:25:04.906Z,99.86
2018-05-15T02:26:04.902Z,99.92
2018-05-15T02:27:04.928Z,99.96
2018-05-15T02:28:04.849Z,99.99
2018-05-15T02:29:04.962Z,99.99
2018-05-15T02:30:04.949Z,99.99
2018-05-15T02:31:04.918Z,99.99
2018-05-15T02:32:04.874Z,99.99
2018-05-15T02:33:04.871Z,99.99
2018-05-15T02:34:04.867Z,99.99
2018-05-15T02:35:04.934Z,99.99
2018-05-15T02:36:04.943Z,99.99
2018-05-15T02:37:04.905Z,99.99
2018-05-15T02:38:04.943Z,99.99
2018-05-15T02:39:04.917Z,99.99
2018-05-15T02:40:04.895Z,99.99
2018-05-15T02:41:04.972Z,99.99
2018-05-15T02:42:04.922Z,99.99
2018-05-15T02:43:04.907Z,99.99
2018-05-15T02:44:04.901Z,99.99
2018-05-15T02:45:04.975Z,99.99
2018-05-15T02:46:04.913Z,99.99
2018-05-15T02:47:04.964Z,99.99
2018-05-15T02:48:04.956Z,99.99
2018-05-15T02:49:04.911Z,99.99
2018-05-15T02:50:04.972Z,99.99
2018-05-15T02:51:04.960Z,99.99
2018-05-15T02:52:04.871Z,99.99
2018-05-15T02:53:04.785Z,99.99
2018-05-15T02:54:04.946Z,99.99
2018-05-15T02:55:04.949Z,99.99
2018-05-15T02:56:04.902Z,99.99
2018-05-15T02:57:04.948Z,99.99
2018-05-15T02:58:04.928Z,99.99
2018-05-15T02:59:04.990Z,99.99
2018-05-15T03:00:04.890Z,99.99
2018-05-15T03:01:04.921Z,99.99
2018-05-15T03:02:04.912Z,99.99
2018-05-15T03:03:04.971Z,99.99
2018-05-15T03:04:04.995Z,99.99
2018-05-15T03:05:04.985Z,99.99
2018-05-15T03:06:05.003Z,99.99
2018-05-15T03:07:04.913Z,99.99
2018-05-15T03:08:04.959Z,99.99
2018-05-15T03:09:04.991Z,99.99
2018-05-15T03:10:04.981Z,99.99
2018-05-15T03:11:04.931Z,99.99
2018-05-15T03:12:04.899Z,99.99
2018-05-15T03:13:04.958Z,99.99
2018-05-15T03:14:04.916Z,99.99
2018-05-15T03:15:04.937Z,99.99
2018-05-15T03:16:04.935Z,99.99
2018-05-15T03:17:04.909Z,99.99
2018-05-15T03:18:04.869Z,99.99
2018-05-15T03:19:04.899Z,99.99
2018-05-15T03:20:04.957Z,99.99
2018-05-15T03:21:04.967Z,99.99
2018-05-15T03:22:04.918Z,99.99
2018-05-15T03:23:04.897Z,99.99
2018-05-15T03:24:04.963Z,99.99
2018-05-15T03:25:04.898Z,99.99
2018-05-15T03:26:04.966Z,99.99
2018-05-15T03:27:04.971Z,99.99
2018-05-15T03:28:04.902Z,99.99
2018-05-15T03:29:04.973Z,99.99
2018-05-15T03:30:04.912Z,99.99
2018-05-15T03:31:04.905Z,99.99
2018-05-15T03:32:04.971Z,99.99
2018-05-15T03:33:04.908Z,99.99
2018-05-15T03:34:04.911Z,99.99
2018-05-15T03:35:04.979Z,99.99
2018-05-15T03:36:04.995Z,99.99
2018-05-15T03:37:04.993Z,99.99
2018-05-15T03:38:04.910Z,99.99
2018-05-15T03:39:04.935Z,99.99
2018-05-15T03:40:04.980Z,99.99
2018-05-15T03:41:04.916Z,99.99
2018-05-15T03:42:04.913Z,99.99
2018-05-15T03:43:04.979Z,99.99
2018-05-15T03:44:04.976Z,99.99
2018-05-15T03:45:04.981Z,99.99
2018-05-15T03:46:04.980Z,99.99
2018-05-15T03:47:05.009Z,99.99
2018-05-15T03:48:04.984Z,99.99
2018-05-15T03:49:04.906Z,99.99
2018-05-15T03:50:05.009Z,99.99
2018-05-15T03:51:04.986Z,99.99
2018-05-15T03:52:04.953Z,99.99
2018-05-15T03:53:05.009Z,99.99
2018-05-15T03:54:05.002Z,99.99
2018-05-15T03:55:04.985Z,99.99
2018-05-15T03:56:04.945Z,99.99
2018-05-15T03:57:04.986Z,99.99
2018-05-15T03:58:04.886Z,99.99
2018-05-15T03:59:05.008Z,99.99
2018-05-15T04:00:04.986Z,99.99
2018-05-15T04:01:04.991Z,99.99
2018-05-15T04:02:04.925Z,99.99
2018-05-15T04:03:04.986Z,99.99
2018-05-15T04:04:04.967Z,99.99
2018-05-15T04:05:04.926Z,99.99
2018-05-15T04:06:04.958Z,99.99
2018-05-15T04:07:04.890Z,99.99
2018-05-15T04:08:05.012Z,99.99
2018-05-15T04:09:04.917Z,99.99
2018-05-15T04:10:04.916Z,99.99
2018-05-15T04:11:05.183Z,99.99
2018-05-15T04:12:05.016Z,99.99
2018-05-15T04:13:05.029Z,99.99
2018-05-15T04:14:04.955Z,99.99
2018-05-15T04:15:04.962Z,99.99
2018-05-15T04:16:04.964Z,99.99
2018-05-15T04:17:04.923Z,99.99
2018-05-15T04:18:04.905Z,99.99
2018-05-15T04:19:04.934Z,99.99
2018-05-15T04:20:04.901Z,99.99
2018-05-15T04:21:04.954Z,99.99
2018-05-15T04:22:04.926Z,99.99
2018-05-15T04:23:04.984Z,99.99
2018-05-15T04:24:04.963Z,99.99
2018-05-15T04:25:04.867Z,99.99
2018-05-15T04:26:04.937Z,99.99
2018-05-15T04:27:04.938Z,99.99
2018-05-15T04:28:04.909Z,99.99
2018-05-15T04:29:04.939Z,99.99
2018-05-15T04:30:04.943Z,99.99
2018-05-15T04:31:04.957Z,99.99
2018-05-15T04:32:05.012Z,99.99
2018-05-15T04:33:04.942Z,99.99
2018-05-15T04:34:04.945Z,99.99
2018-05-15T04:35:04.990Z,99.99
2018-05-15T04:36:05.007Z,99.99
2018-05-15T04:37:04.946Z,99.99
2018-05-15T04:38:05.013Z,99.99
2018-05-15T04:39:04.990Z,99.99
2018-05-15T04:40:04.922Z,99.99
2018-05-15T04:41:04.917Z,99.99
2018-05-15T04:42:04.982Z,99.99
2018-05-15T04:43:05.033Z,99.99
2018-05-15T04:44:04.937Z,99.99
2018-05-15T04:45:04.940Z,99.99
2018-05-15T04:46:05.055Z,99.99
2018-05-15T04:47:05.052Z,99.99
2018-05-15T04:48:05.055Z,99.99
2018-05-15T04:49:05.018Z,99.99
2018-05-15T04:50:05.045Z,99.99
2018-05-15T04:51:04.998Z,99.99
2018-05-15T04:52:04.977Z,99.99
2018-05-15T04:53:05.023Z,99.99
2018-05-15T04:54:05.001Z,99.99
2018-05-15T04:55:05.045Z,99.99
2018-05-15T04:56:04.926Z,99.99
2018-05-15T04:57:05.021Z,99.99
2018-05-15T04:58:04.931Z,99.99
2018-05-15T04:59:04.926Z,99.99
2018-05-15T05:00:04.897Z,99.99
2018-05-15T05:01:05.018Z,99.99
2018-05-15T05:02:05.017Z,99.99
2018-05-15T05:03:04.933Z,99.99
2018-05-15T05:04:05.027Z,99.99
2018-05-15T05:05:04.950Z,99.99
2018-05-15T05:06:04.933Z,99.99
2018-05-15T05:07:04.956Z,99.99
2018-05-15T05:08:05.041Z,99.99
2018-05-15T05:09:04.966Z,99.99
2018-05-15T05:10:04.963Z,99.99
2018-05-15T05:11:05.041Z,99.99
2018-05-15T05:12:05.035Z,99.99
2018-05-15T05:13:05.035Z,99.99
2018-05-15T05:14:05.042Z,99.99
2018-05-15T05:15:04.929Z,99.99
2018-05-15T05:16:04.986Z,99.99
2018-05-15T05:17:04.970Z,99.99
2018-05-15T05:18:04.920Z,99.99
2018-05-15T05:19:05.036Z,99.99
2018-05-15T05:20:04.961Z,99.94
2018-05-15T05:21:05.103Z,99.29
2018-05-15T05:22:05.041Z,98.50
2018-05-15T05:23:05.019Z,97.58
2018-05-15T05:24:05.043Z,96.77
2018-05-15T05:25:05.081Z,95.98
2018-05-15T05:26:04.968Z,95.20
2018-05-15T05:27:05.110Z,94.72
2018-05-15T05:28:05.073Z,94.31
2018-05-15T05:29:04.965Z,93.78
2018-05-15T05:30:04.951Z,93.37
2018-05-15T05:31:04.992Z,93.10
2018-05-15T05:32:04.951Z,93.08
2018-05-15T05:33:05.043Z,93.02
2018-05-15T05:34:05.050Z,92.97
2018-05-15T05:35:05.004Z,92.43
2018-05-15T05:36:05.038Z,91.63
2018-05-15T05:37:04.953Z,91.25
2018-05-15T05:38:04.916Z,91.11
2018-05-15T05:39:05.039Z,90.88
2018-05-15T05:40:04.990Z,90.82
2018-05-15T05:41:04.951Z,90.61
2018-05-15T05:42:04.982Z,90.18
2018-05-15T05:43:04.989Z,89.40
2018-05-15T05:44:04.928Z,88.39
2018-05-15T05:45:04.927Z,87.74
2018-05-15T05:46:04.973Z,87.56
2018-05-15T05:47:05.011Z,86.87
2018-05-15T05:48:05.011Z,85.85
2018-05-15T05:49:05.070Z,84.36
2018-05-15T05:50:05.060Z,82.82
2018-05-15T05:51:05.073Z,81.32
2018-05-15T05:52:05.140Z,79.91
2018-05-15T05:53:04.998Z,79.79
2018-05-15T05:54:05.063Z,79.81
2018-05-15T05:55:04.996Z,78.86
2018-05-15T05:56:05.064Z,79.20
2018-05-15T05:57:05.062Z,79.79
2018-05-15T05:58:05.095Z,78.57
2018-05-15T05:59:05.082Z,75.76
2018-05-15T06:00:04.988Z,73.16
2018-05-15T06:01:05.082Z,73.42
2018-05-15T06:02:04.989Z,71.03
2018-05-15T06:03:05.087Z,70.58
2018-05-15T06:04:05.042Z,70.06
2018-05-15T06:05:05.091Z,70.24
2018-05-15T06:06:05.048Z,69.65
2018-05-15T06:07:05.034Z,69.80
2018-05-15T06:08:05.101Z,68.29
2018-05-15T06:09:05.069Z,68.74
2018-05-15T06:10:04.981Z,68.97
2018-05-15T06:11:05.097Z,69.46
2018-05-15T06:12:04.974Z,69.54
2018-05-15T06:13:05.023Z,69.20
2018-05-15T06:14:05.040Z,69.85
2018-05-15T06:15:05.076Z,69.38
2018-05-15T06:16:05.107Z,68.60
2018-05-15T06:17:05.099Z,69.07
2018-05-15T06:18:05.108Z,68.91
2018-05-15T06:19:05.107Z,69.28
2018-05-15T06:20:05.017Z,69.15
2018-05-15T06:21:05.174Z,67.64
2018-05-15T06:22:05.015Z,67.18
2018-05-15T06:23:04.983Z,67.64
2018-05-15T06:24:05.068Z,67.16
2018-05-15T06:25:05.071Z,66.45
2018-05-15T06:26:05.059Z,65.14
2018-05-15T06:27:04.989Z,65.29
2018-05-15T06:28:05.077Z,64.70
2018-05-15T06:29:04.991Z,63.98
2018-05-15T06:30:05.002Z,62.20
2018-05-15T06:31:05.006Z,62.46
2018-05-15T06:32:04.989Z,62.77
2018-05-15T06:33:04.990Z,62.99
2018-05-15T06:34:04.992Z,63.20
2018-05-15T06:35:04.996Z,63.43
2018-05-15T06:36:05.075Z,63.13
2018-05-15T06:37:05.081Z,63.46
2018-05-15T06:38:04.979Z,63.26
2018-05-15T06:39:05.087Z,62.58
2018-05-15T06:40:05.090Z,62.87
2018-05-15T06:41:05.025Z,64.05
2018-05-15T06:42:05.095Z,62.79
2018-05-15T06:43:05.031Z,63.51
2018-05-15T06:44:05.027Z,64.82
2018-05-15T06:45:05.160Z,65.32
2018-05-15T06:46:05.031Z,63.85
2018-05-15T06:47:05.095Z,63.98
2018-05-15T06:48:05.139Z,64.36
2018-05-15T06:49:05.109Z,64.49
2018-05-15T06:50:05.053Z,63.98
2018-05-15T06:54:05.008Z,61.78
2018-05-15T06:55:05.098Z,61.94
2018-05-15T06:56:05.084Z,62.43
2018-05-15T06:57:05.078Z,63.41
2018-05-15T06:58:05.071Z,63.79
2018-05-15T06:59:05.063Z,62.10
2018-05-15T07:00:05.040Z,60.53
2018-05-15T07:01:05.101Z,59.97
2018-05-15T07:02:04.972Z,60.58
2018-05-15T07:03:04.983Z,61.14
2018-05-15T07:04:05.013Z,58.35
2018-05-15T07:05:05.100Z,59.92
2018-05-15T07:06:05.046Z,61.30
2018-05-15T07:07:04.980Z,60.40
2018-05-15T07:08:05.054Z,58.07
2018-05-15T07:09:05.017Z,57.02
2018-05-15T07:10:05.041Z,56.69
2018-05-15T07:11:05.102Z,56.87
2018-05-15T07:12:05.099Z,55.67
2018-05-15T07:13:05.105Z,55.47
2018-05-15T07:14:05.148Z,56.21
2018-05-15T07:15:05.108Z,55.19
2018-05-15T07:16:05.102Z,55.45
2018-05-15T07:17:05.099Z,56.46
2018-05-15T07:18:05.051Z,56.61
2018-05-15T07:19:05.050Z,57.15
2018-05-15T07:20:05.144Z,58.20
2018-05-15T07:21:05.136Z,58.79
2018-05-15T07:22:05.143Z,57.95
2018-05-15T07:23:05.134Z,56.21
2018-05-15T07:24:05.073Z,56.61
2018-05-15T07:25:05.141Z,55.11
2018-05-15T07:26:05.105Z,55.93
2018-05-15T07:27:05.029Z,55.22
2018-05-15T07:28:05.159Z,54.53
2018-05-15T07:29:05.081Z,56.33
2018-05-15T07:30:05.152Z,55.98
2018-05-15T07:31:05.124Z,58.17
2018-05-15T07:32:05.092Z,59.53
2018-05-15T07:33:05.131Z,55.42
2018-05-15T07:34:05.105Z,54.23
2018-05-15T07:35:05.128Z,54.00
2018-05-15T07:36:05.106Z,53.36
2018-05-15T07:37:05.129Z,51.74
2018-05-15T07:38:05.129Z,53.03
2018-05-15T07:39:05.034Z,49.02
2018-05-15T07:40:05.066Z,49.87
2018-05-15T07:41:05.065Z,51.06
2018-05-15T07:42:05.132Z,48.89
2018-05-15T07:43:05.065Z,50.40
2018-05-15T07:44:05.155Z,50.10
2018-05-15T07:45:05.142Z,46.45
2018-05-15T07:46:05.067Z,46.90
2018-05-15T07:47:05.068Z,47.96
2018-05-15T07:48:05.144Z,47.86
2018-05-15T07:49:05.090Z,47.58
2018-05-15T07:50:05.107Z,48.39
2018-05-15T07:51:05.172Z,46.00
2018-05-15T07:52:05.036Z,46.78
2018-05-15T07:53:05.098Z,49.60
2018-05-15T07:54:05.106Z,49.55
2018-05-15T07:55:05.107Z,50.38
2018-05-15T07:56:05.079Z,44.12
2018-05-15T07:57:05.115Z,45.15
2018-05-15T07:58:05.140Z,43.38
2018-05-15T07:59:05.166Z,44.37
2018-05-15T08:00:05.152Z,42.03
2018-05-15T08:01:05.077Z,41.38
2018-05-15T08:02:05.180Z,42.15
2018-05-15T08:03:05.150Z,42.35
2018-05-15T08:04:05.147Z,43.50
2018-05-15T08:05:05.080Z,43.10
2018-05-15T08:06:05.103Z,43.45
2018-05-15T08:07:05.042Z,45.68
2018-05-15T08:08:05.152Z,45.30
2018-05-15T08:09:05.150Z,46.60
2018-05-15T08:10:05.098Z,45.65
2018-05-15T08:11:05.086Z,45.02
2018-05-15T08:12:05.150Z,44.57
2018-05-15T08:13:05.151Z,44.82
2018-05-15T08:14:05.151Z,48.61
2018-05-15T08:15:05.086Z,49.12
2018-05-15T08:16:05.155Z,47.76
2018-05-15T08:17:05.155Z,43.57
2018-05-15T08:18:05.102Z,43.95
2018-05-15T08:19:05.169Z,40.73
2018-05-15T08:20:05.125Z,40.61
2018-05-15T08:21:05.136Z,40.56
2018-05-15T08:22:05.077Z,41.63
2018-05-15T08:23:05.163Z,42.78
2018-05-15T08:24:05.101Z,43.97
2018-05-15T08:25:05.156Z,42.15
2018-05-15T08:26:05.125Z,41.03
2018-05-15T08:27:05.175Z,42.70
2018-05-15T08:28:05.139Z,43.88
2018-05-15T08:29:05.132Z,41.61
2018-05-15T08:30:05.055Z,43.90
2018-05-15T08:31:05.141Z,39.74
2018-05-15T08:32:05.099Z,40.88
2018-05-15T08:33:05.094Z,38.43
2018-05-15T08:34:05.057Z,39.59
2018-05-15T08:35:05.117Z,40.85
2018-05-15T08:36:05.031Z,40.66
2018-05-15T08:37:05.091Z,42.30
2018-05-15T08:38:05.149Z,40.29
2018-05-15T08:39:05.097Z,38.43
2018-05-15T08:40:05.067Z,36.99
2018-05-15T08:41:05.102Z,37.66
2018-05-15T08:42:05.167Z,41.80
2018-05-15T08:43:05.159Z,39.59
2018-05-15T08:44:05.123Z,43.52
2018-05-15T08:45:05.102Z,40.31
2018-05-15T08:46:05.075Z,41.08
2018-05-15T08:47:05.167Z,38.97
2018-05-15T08:48:05.079Z,37.86
2018-05-15T08:49:05.163Z,40.41
2018-05-15T08:50:05.080Z,37.71
2018-05-15T08:51:05.148Z,41.23
2018-05-15T08:52:05.179Z,39.15
2018-05-15T08:53:05.152Z,37.91
2018-05-15T08:54:05.104Z,38.23
2018-05-15T08:55:05.175Z,39.76
2018-05-15T08:56:05.086Z,41.13
2018-05-15T08:57:05.181Z,39.37
2018-05-15T08:58:05.178Z,41.01
2018-05-15T08:59:05.082Z,42.40
2018-05-15T09:00:05.207Z,38.57
2018-05-15T09:01:05.202Z,41.15
2018-05-15T09:02:05.189Z,38.47
2018-05-15T09:03:05.146Z,40.01
2018-05-15T09:04:05.087Z,39.54
2018-05-15T09:05:05.223Z,38.72
2018-05-15T09:06:05.141Z,39.47
2018-05-15T09:07:05.160Z,37.41
2018-05-15T09:08:05.163Z,38.25
2018-05-15T09:09:05.108Z,38.52
2018-05-15T09:10:05.163Z,38.68
2018-05-15T09:11:05.183Z,39.54
2018-05-15T09:12:05.087Z,36.67
2018-05-15T09:13:05.207Z,36.75
2018-05-15T09:14:05.211Z,38.68
2018-05-15T09:15:05.218Z,36.47
2018-05-15T09:16:05.206Z,37.06
2018-05-15T09:17:05.197Z,37.96
2018-05-15T09:18:05.101Z,38.87
2018-05-15T09:19:05.147Z,37.91
2018-05-15T09:20:05.104Z,38.21
2018-05-15T09:21:05.145Z,38.65
2018-05-15T09:22:05.186Z,40.13
2018-05-15T09:23:05.123Z,41.48
2018-05-15T09:24:05.186Z,39.57
2018-05-15T09:25:05.189Z,38.03
2018-05-15T09:26:05.187Z,38.57
2018-05-15T09:27:05.229Z,35.54
2018-05-15T09:28:05.133Z,39.44
2018-05-15T09:29:05.235Z,38.05
2018-05-15T09:30:05.101Z,38.25
2018-05-15T09:31:05.074Z,38.92
2018-05-15T09:32:05.136Z,36.94
2018-05-15T09:33:05.109Z,39.52
2018-05-15T09:34:05.068Z,37.02
2018-05-15T09:35:05.091Z,36.67
2018-05-15T09:36:05.202Z,36.23
2018-05-15T09:37:05.109Z,37.98
2018-05-15T09:38:05.102Z,36.75
2018-05-15T09:39:05.196Z,36.75
2018-05-15T09:40:05.208Z,37.22
2018-05-15T09:41:05.209Z,38.60
2018-05-15T09:42:05.147Z,36.40
2018-05-15T09:43:05.212Z,35.98
2018-05-15T09:44:05.147Z,36.57
2018-05-15T09:45:05.141Z,37.34
2018-05-15T09:46:05.250Z,38.55
2018-05-15T09:47:05.208Z,38.92
2018-05-15T09:48:05.212Z,37.68
2018-05-15T09:49:05.213Z,42.85
2018-05-15T09:50:05.176Z,36.84
2018-05-15T09:51:05.196Z,35.73
2018-05-15T09:52:05.137Z,36.62
2018-05-15T09:53:05.229Z,38.75
2018-05-15T09:54:05.237Z,37.34
2018-05-15T09:55:05.186Z,37.74
2018-05-15T09:56:05.136Z,37.16
2018-05-15T09:57:05.196Z,38.21
2018-05-15T09:58:05.255Z,37.93
2018-05-15T09:59:05.190Z,39.79
2018-05-15T10:00:05.191Z,37.83
2018-05-15T10:01:05.160Z,38.55
2018-05-15T10:02:05.237Z,36.35
2018-05-15T10:03:05.195Z,36.92
2018-05-15T10:04:05.182Z,36.55
2018-05-15T10:05:05.223Z,34.99
2018-05-15T10:06:05.251Z,34.90
2018-05-15T10:07:05.182Z,37.41
2018-05-15T10:08:05.362Z,37.76
2018-05-15T10:09:05.190Z,37.06
2018-05-15T10:10:05.198Z,38.75
2018-05-15T10:11:05.230Z,37.34
2018-05-15T10:12:05.183Z,36.84
2018-05-15T10:13:05.225Z,35.88
2018-05-15T10:14:05.297Z,36.33
2018-05-15T10:15:05.191Z,37.86
2018-05-15T10:16:05.266Z,39.89
2018-05-15T10:17:05.198Z,40.85
2018-05-15T10:18:05.161Z,39.62
2018-05-15T10:19:05.257Z,36.45
2018-05-15T10:20:05.323Z,38.52
2018-05-15T10:21:05.141Z,37.39
2018-05-15T10:22:05.159Z,34.55
2018-05-15T10:23:05.185Z,35.09
2018-05-15T10:24:05.131Z,35.64
2018-05-15T10:25:05.196Z,35.76
2018-05-15T10:26:05.219Z,37.19
2018-05-15T10:27:05.116Z,35.56
2018-05-15T10:28:05.188Z,36.84
2018-05-15T10:29:05.175Z,37.31
2018-05-15T10:30:05.333Z,34.67
2018-05-15T10:31:05.212Z,35.12
2018-05-15T10:32:05.193Z,36.87
2018-05-15T10:33:05.139Z,36.15
2018-05-15T10:34:05.270Z,35.29
2018-05-15T10:35:05.263Z,36.92
2018-05-15T10:36:05.283Z,39.71
2018-05-15T10:37:05.291Z,38.08
2018-05-15T10:38:05.222Z,37.98
2018-05-15T10:39:05.322Z,36.37
2018-05-15T10:40:05.144Z,39.49
2018-05-15T10:41:05.149Z,37.09
2018-05-15T10:42:05.239Z,36.00
2018-05-15T10:43:05.241Z,34.35
2018-05-15T10:44:05.250Z,34.26
2018-05-15T10:45:05.232Z,35.39
2018-05-15T10:46:05.246Z,35.71
2018-05-15T10:47:05.237Z,36.59
2018-05-15T10:48:05.189Z,37.24
2018-05-15T10:49:05.242Z,38.94
2018-05-15T10:50:05.252Z,38.72
2018-05-15T10:51:05.197Z,39.17
2018-05-15T10:52:05.251Z,39.12
2018-05-15T10:53:05.186Z,39.17
2018-05-15T10:54:05.151Z,39.27
2018-05-15T10:55:05.256Z,39.10
2018-05-15T10:56:05.188Z,40.59
2018-05-15T10:57:05.259Z,38.21
2018-05-15T10:58:05.230Z,36.52
2018-05-15T10:59:05.194Z,38.63
2018-05-15T11:00:05.214Z,39.12
2018-05-15T11:01:05.193Z,40.73
2018-05-15T11:02:05.253Z,39.57
2018-05-15T11:03:05.150Z,39.62
2018-05-15T11:04:05.249Z,41.93
2018-05-15T11:05:05.194Z,42.53
2018-05-15T11:06:05.241Z,39.62
2018-05-15T11:07:05.215Z,39.22
2018-05-15T11:08:05.217Z,37.78
2018-05-15T11:09:05.199Z,37.46
2018-05-15T11:10:05.202Z,37.81
2018-05-15T11:11:05.228Z,35.61
2018-05-15T11:12:05.237Z,37.93
2018-05-15T11:13:05.307Z,37.36
2018-05-15T11:14:05.299Z,37.24
2018-05-15T11:15:05.163Z,36.59
2018-05-15T11:16:05.290Z,37.53
2018-05-15T11:17:05.188Z,38.63
2018-05-15T11:18:05.242Z,37.29
2018-05-15T11:19:05.283Z,39.27
2018-05-15T11:20:05.245Z,40.36
2018-05-15T11:21:05.295Z,40.16
2018-05-15T11:22:05.291Z,40.63
2018-05-15T11:23:05.303Z,38.50
2018-05-15T11:24:05.273Z,38.47
2018-05-15T11:25:05.293Z,39.12
2018-05-15T11:26:05.184Z,39.64
2018-05-15T11:27:05.211Z,37.93
2018-05-15T11:28:05.253Z,37.83
2018-05-15T11:29:05.298Z,39.32
2018-05-15T11:30:05.298Z,39.34
2018-05-15T11:31:05.236Z,40.09
2018-05-15T11:32:05.296Z,38.55
2018-05-15T11:33:05.231Z,38.65
2018-05-15T11:34:05.240Z,41.70
2018-05-15T11:35:05.248Z,41.58
2018-05-15T11:36:05.368Z,40.09
2018-05-15T11:37:05.301Z,40.63
2018-05-15T11:38:05.288Z,41.13
2018-05-15T11:39:05.314Z,41.38
2018-05-15T11:40:05.246Z,40.01
2018-05-15T11:41:05.215Z,36.97
2018-05-15T11:42:05.290Z,39.42
2018-05-15T11:43:05.214Z,36.52
2018-05-15T11:44:05.287Z,39.57
2018-05-15T11:45:05.292Z,36.97
2018-05-15T11:46:05.241Z,38.28
2018-05-15T11:47:05.288Z,39.89
2018-05-15T11:48:05.819Z,38.25
2018-05-15T11:49:06.467Z,38.35
2018-05-15T11:50:06.638Z,41.98
2018-05-15T11:51:06.117Z,36.42
2018-05-15T11:52:06.076Z,38.57
2018-05-15T11:53:05.954Z,36.08
2018-05-15T11:54:05.249Z,35.44
2018-05-15T11:55:05.231Z,36.57
2018-05-15T11:56:05.291Z,35.98
2018-05-15T11:57:05.265Z,36.67
2018-05-15T11:58:05.249Z,35.36
2018-05-15T11:59:05.307Z,35.93
2018-05-15T12:00:05.400Z,35.29
2018-05-15T12:01:05.287Z,40.06
2018-05-15T12:02:05.290Z,36.97
2018-05-15T12:03:05.289Z,36.62
2018-05-15T12:04:05.261Z,36.75
2018-05-15T12:05:05.291Z,37.46
2018-05-15T12:06:05.287Z,35.29
2018-05-15T12:07:05.288Z,36.87
2018-05-15T12:08:05.356Z,37.53
2018-05-15T12:09:05.397Z,42.20
2018-05-15T12:10:05.190Z,41.06
2018-05-15T12:11:05.207Z,38.87
2018-05-15T12:12:05.211Z,36.25
2018-05-15T12:13:05.343Z,36.82
2018-05-15T12:14:05.342Z,37.74
2018-05-15T12:15:05.310Z,36.35
2018-05-15T12:16:05.390Z,37.68
2018-05-15T12:17:05.355Z,41.82
2018-05-15T12:18:05.261Z,39.91
2018-05-15T12:19:05.434Z,37.09
2018-05-15T12:20:05.209Z,40.06
2018-05-15T12:21:05.334Z,39.89
2018-05-15T12:22:05.288Z,38.25
2018-05-15T12:23:05.325Z,36.80
2018-05-15T12:24:05.283Z,41.48
2018-05-15T12:25:05.312Z,36.62
2018-05-15T12:26:05.332Z,38.99
2018-05-15T12:27:05.346Z,39.74
2018-05-15T12:28:05.407Z,39.52
2018-05-15T12:29:05.241Z,38.87
2018-05-15T12:30:05.285Z,39.22
2018-05-15T12:31:05.319Z,41.08
2018-05-15T12:32:05.318Z,40.21
2018-05-15T12:33:05.215Z,41.23
2018-05-15T12:34:05.252Z,43.08
2018-05-15T12:35:05.250Z,41.93
2018-05-15T12:36:05.253Z,41.68
2018-05-15T12:37:05.252Z,42.85
2018-05-15T12:38:05.254Z,44.12
2018-05-15T12:39:05.254Z,46.00
2018-05-15T12:40:05.256Z,42.87
2018-05-15T12:41:05.341Z,44.64
2018-05-15T12:42:05.558Z,45.25
2018-05-15T12:43:05.320Z,45.95
2018-05-15T12:44:05.261Z,43.38
2018-05-15T12:45:05.334Z,43.80
2018-05-15T12:46:05.256Z,45.45
2018-05-15T12:47:05.327Z,44.12
2018-05-15T12:48:05.483Z,42.55
2018-05-15T12:49:05.330Z,43.20
2018-05-15T12:50:05.329Z,42.90
2018-05-15T12:51:05.309Z,43.30
2018-05-15T12:52:05.292Z,42.70
2018-05-15T12:53:05.312Z,43.27
2018-05-15T12:54:05.297Z,43.27
2018-05-15T12:55:05.283Z,42.53